Gnaw Bone, Indiana
Current Conditions -  °F | °C
As of 12:55 AM on Sunday 23 Nov 2014 (Local Time) from K1II Reporting Station
Drizzle Drizzle  
Wind Chill: 52°   Ceiling: 5500
Heat Index: 52°   Visibility: 10mi
Dew Point: 36°   Wind: 5mph
Humidity: 54%   Direction: 160°SSE
Pressure: 30.01"   Gusts: NA
Location:  39.193°N, 86.2182°W
Report Text: K1II 230555Z AUTO 16004KT 10SM -DZ SCT050 OVC055 11/02 A3001 RMK AO2
Loading
Personal Weather Stations






























Interactive Weather Map New forecast layout! Learn more

10-Day Weather Forecast

Advertisements
Track Severe Weather on mobile